Time;durP1;ratioP1;P1;durP2;ratioP2;P2;SDS_P1;SDS_P2;PMS_P1;PMS_P2;Temp;Humidity;BMP_temperature;BMP_pressure;BME280_temperature;BME280_humidity;BME280_pressure;Samples;Min_cycle;Max_cycle;Signal;HPM_P1;HPM_P2
2021/05/22 00:00:09;;;;;;;6.80;1.00;;;11.40;76.90;;;;;;5072829;28;20032;-73
2021/05/22 00:02:35;;;;;;;5.50;1.03;;;11.40;77.20;;;;;;5056361;28;20036;-76
2021/05/22 00:05:00;;;;;;;4.47;0.90;;;11.40;77.20;;;;;;5056188;28;20054;-75
2021/05/22 00:07:26;;;;;;;6.10;0.80;;;11.40;77.30;;;;;;5073124;28;20036;-76
2021/05/22 00:09:52;;;;;;;7.13;1.07;;;11.40;77.30;;;;;;5072204;28;20092;-76
2021/05/22 00:12:18;;;;;;;2.53;0.60;;;11.40;77.60;;;;;;5072569;28;20111;-77
2021/05/22 00:14:43;;;;;;;7.43;0.83;;;11.40;77.40;;;;;;5055862;28;20388;-76
2021/05/22 00:17:09;;;;;;;6.67;0.90;;;11.40;77.20;;;;;;5055870;28;20024;-75
2021/05/22 00:19:35;;;;;;;6.17;0.80;;;11.40;77.10;;;;;;5072589;28;20124;-76
2021/05/22 00:22:00;;;;;;;8.67;1.10;;;11.40;76.90;;;;;;5072720;28;20479;-76
2021/05/22 00:24:26;;;;;;;11.53;1.10;;;11.40;76.90;;;;;;5055753;28;20062;-75
2021/05/22 00:26:52;;;;;;;5.23;1.10;;;11.40;76.70;;;;;;5073534;28;20361;-75
2021/05/22 00:29:18;;;;;;;6.17;1.00;;;11.40;76.60;;;;;;5055868;28;20123;-75
2021/05/22 00:31:44;;;;;;;11.13;1.13;;;11.50;76.70;;;;;;5055788;28;20103;-78
2021/05/22 00:34:09;;;;;;;4.20;1.00;;;11.50;76.60;;;;;;5038947;28;20017;-78
2021/05/22 00:36:35;;;;;;;4.53;0.60;;;11.40;76.20;;;;;;5055472;28;20021;-76
2021/05/22 00:39:00;;;;;;;8.00;0.77;;;11.50;76.00;;;;;;5055860;28;20024;-75
2021/05/22 00:41:26;;;;;;;7.43;1.40;;;11.50;75.80;;;;;;5073621;28;20172;-76
2021/05/22 00:43:52;;;;;;;8.03;1.37;;;11.30;75.40;;;;;;5072382;28;20464;-76
2021/05/22 00:46:18;;;;;;;5.57;0.63;;;11.50;75.00;;;;;;5072107;28;20524;-75
2021/05/22 00:48:43;;;;;;;7.33;0.80;;;11.50;74.80;;;;;;5073817;28;20028;-76
2021/05/22 00:51:09;;;;;;;5.67;0.97;;;11.50;74.90;;;;;;5055459;28;20028;-75
2021/05/22 00:53:35;;;;;;;7.63;1.00;;;11.50;75.00;;;;;;5072765;28;20356;-75
2021/05/22 00:56:02;;;;;;;4.73;0.90;;;11.50;74.60;;;;;;5072271;28;20032;-77
2021/05/22 00:58:28;;;;;;;4.97;0.87;;;11.50;74.50;;;;;;5055435;28;20044;-75
2021/05/22 01:00:56;;;;;;;5.50;0.93;;;11.50;74.40;;;;;;5059520;28;20029;-78
2021/05/22 01:03:36;;;;;;;11.00;1.33;;;11.50;75.00;;;;;;5076019;28;20028;-76
2021/05/22 01:06:15;;;;;;;5.33;0.83;;;11.50;74.30;;;;;;5059493;28;20139;-76
2021/05/22 01:08:44;;;;;;;10.00;1.10;;;11.50;74.40;;;;;;5076567;28;20490;-78
2021/05/22 01:11:17;;;;;;;6.87;0.90;;;11.50;74.20;;;;;;5060927;28;20045;-78
2021/05/22 01:13:47;;;;;;;5.25;0.90;;;11.60;74.10;;;;;;5077729;28;20035;-76
2021/05/22 01:16:14;;;;;;;6.40;0.70;;;11.50;74.20;;;;;;5079037;28;20021;-78
2021/05/22 01:18:42;;;;;;;9.80;0.70;;;11.50;74.20;;;;;;5076925;28;20460;-76
2021/05/22 01:21:08;;;;;;;6.90;0.70;;;11.50;73.70;;;;;;5076969;28;20031;-80
2021/05/22 01:23:41;;;;;;;5.23;0.60;;;11.50;73.80;;;;;;5076082;28;20415;-75
2021/05/22 01:26:08;;;;;;;7.72;1.02;;;11.50;73.80;;;;;;5077013;28;20033;-76
2021/05/22 01:28:35;;;;;;;4.63;0.80;;;11.50;73.70;;;;;;5075687;28;20024;-75
2021/05/22 01:31:02;;;;;;;5.83;0.70;;;11.50;73.80;;;;;;5059017;28;20086;-78
2021/05/22 01:33:28;;;;;;;6.93;0.73;;;11.50;73.80;;;;;;5077066;28;20380;-75
2021/05/22 01:35:54;;;;;;;5.80;0.70;;;11.50;73.70;;;;;;5075764;28;20052;-78
2021/05/22 01:38:20;;;;;;;5.97;1.00;;;11.50;74.40;;;;;;5059173;28;20059;-76
2021/05/22 01:40:46;;;;;;;4.97;0.80;;;11.60;73.90;;;;;;5076772;28;20667;-76
2021/05/22 01:43:11;;;;;;;7.77;1.10;;;11.50;73.50;;;;;;5076017;28;20033;-77
2021/05/22 01:45:41;;;;;;;8.73;1.00;;;11.50;73.60;;;;;;5059084;28;20060;-77
2021/05/22 01:48:11;;;;;;;12.37;1.30;;;11.40;73.70;;;;;;5075145;28;20082;-76
2021/05/22 01:50:43;;;;;;;7.97;1.60;;;11.40;73.70;;;;;;5075407;28;20029;-76
2021/05/22 01:53:11;;;;;;;6.23;1.13;;;11.40;74.00;;;;;;5074979;28;20511;-77
2021/05/22 01:55:38;;;;;;;7.73;0.80;;;11.50;74.20;;;;;;5075088;28;20025;-77
2021/05/22 01:58:05;;;;;;;6.13;0.90;;;11.30;74.10;;;;;;5075398;28;20024;-77
2021/05/22 02:00:31;;;;;;;7.37;0.80;;;11.40;74.30;;;;;;5058597;28;20028;-77
2021/05/22 02:02:58;;;;;;;7.87;1.10;;;11.40;74.10;;;;;;5058416;28;20128;-76
2021/05/22 02:05:26;;;;;;;5.03;0.93;;;11.40;74.40;;;;;;5076333;28;20035;-76
2021/05/22 02:07:53;;;;;;;7.63;1.57;;;11.30;74.50;;;;;;5076073;28;20533;-77
2021/05/22 02:10:19;;;;;;;9.93;1.17;;;11.40;74.80;;;;;;5074069;28;20087;-75
2021/05/22 02:12:46;;;;;;;7.63;1.23;;;11.40;74.80;;;;;;5075761;28;20032;-75
2021/05/22 02:15:14;;;;;;;9.07;1.03;;;11.40;75.00;;;;;;5075000;28;20025;-77
2021/05/22 02:17:42;;;;;;;4.33;0.90;;;11.40;75.10;;;;;;5057974;28;20025;-77
2021/05/22 02:20:09;;;;;;;5.20;0.90;;;11.30;75.20;;;;;;5076029;28;20522;-78
2021/05/22 02:22:38;;;;;;;8.90;0.83;;;11.30;75.20;;;;;;5074947;28;20036;-76
2021/05/22 02:25:04;;;;;;;4.23;0.80;;;11.30;75.30;;;;;;5075977;28;20570;-77
2021/05/22 02:27:32;;;;;;;6.17;0.80;;;11.40;75.30;;;;;;5074823;28;20043;-75
2021/05/22 02:29:58;;;;;;;7.80;1.03;;;11.30;75.40;;;;;;5074874;28;20024;-74
2021/05/22 02:32:25;;;;;;;9.60;0.70;;;11.30;75.30;;;;;;5057978;28;20029;-77
2021/05/22 02:34:56;;;;;;;5.67;0.80;;;11.30;75.60;;;;;;5075842;28;20024;-78
2021/05/22 02:37:26;;;;;;;8.43;1.13;;;11.30;75.70;;;;;;5074951;28;20024;-76
2021/05/22 02:39:55;;;;;;;3.80;0.93;;;11.30;75.70;;;;;;5074863;28;20020;-76
2021/05/22 02:42:22;;;;;;;4.47;0.70;;;11.30;76.00;;;;;;5074307;28;20032;-77
2021/05/22 02:44:52;;;;;;;5.07;0.80;;;11.20;76.20;;;;;;5075615;28;20095;-75
2021/05/22 02:47:20;;;;;;;5.80;1.07;;;11.30;76.60;;;;;;5075507;28;20048;-75
2021/05/22 02:49:48;;;;;;;3.97;0.57;;;11.30;76.70;;;;;;5074074;28;20021;-76
2021/05/22 02:52:17;;;;;;;6.97;0.97;;;11.30;76.70;;;;;;5074250;28;20035;-77
2021/05/22 02:54:46;;;;;;;4.90;0.70;;;11.30;76.50;;;;;;5075502;28;20082;-77
2021/05/22 02:57:13;;;;;;;5.80;0.70;;;11.30;77.30;;;;;;5057895;28;20032;-76
2021/05/22 02:59:42;;;;;;;9.67;0.77;;;11.20;76.60;;;;;;5074321;28;20357;-77
2021/05/22 03:02:10;;;;;;;5.43;0.50;;;11.20;76.90;;;;;;5057214;28;20052;-77
2021/05/22 03:04:36;;;;;;;8.43;0.60;;;11.20;76.70;;;;;;5075374;28;20036;-76
2021/05/22 03:07:03;;;;;;;5.37;0.80;;;11.20;77.00;;;;;;5075721;28;20025;-83
2021/05/22 03:09:29;;;;;;;8.57;1.10;;;11.20;78.10;;;;;;5073486;28;20440;-81
2021/05/22 03:11:55;;;;;;;5.63;0.90;;;11.20;78.40;;;;;;5075065;28;20040;-85
2021/05/22 03:14:21;;;;;;;10.10;0.80;;;11.10;78.40;;;;;;5057043;28;20035;-81
2021/05/22 03:16:47;;;;;;;5.23;0.70;;;11.10;78.70;;;;;;5057060;28;20028;-82
2021/05/22 03:19:13;;;;;;;4.83;0.57;;;11.20;78.70;;;;;;5040300;28;20035;-82
2021/05/22 03:21:39;;;;;;;3.47;0.47;;;11.10;78.30;;;;;;5073463;28;20039;-84
2021/05/22 03:24:06;;;;;;;1.93;0.50;;;11.10;78.30;;;;;;5056181;28;20411;-81
2021/05/22 03:26:31;;;;;;;4.03;0.63;;;11.20;77.80;;;;;;5073581;28;20032;-84
2021/05/22 03:28:57;;;;;;;5.83;0.70;;;11.20;77.80;;;;;;5057320;28;20111;-80
2021/05/22 03:31:23;;;;;;;7.40;0.73;;;11.20;77.70;;;;;;5073379;28;20124;-82
2021/05/22 03:33:48;;;;;;;6.07;0.70;;;11.30;77.70;;;;;;5056623;28;20032;-81
2021/05/22 03:36:14;;;;;;;4.50;0.80;;;11.20;77.60;;;;;;5056657;28;20058;-82
2021/05/22 03:38:42;;;;;;;3.60;0.60;;;11.20;77.10;;;;;;5056888;28;20035;-79
2021/05/22 03:41:08;;;;;;;4.53;0.50;;;11.20;77.20;;;;;;5056797;28;20083;-81
2021/05/22 03:43:34;;;;;;;2.60;0.60;;;11.40;77.30;;;;;;5073231;28;20365;-80
2021/05/22 03:46:00;;;;;;;5.53;0.53;;;11.40;77.10;;;;;;5073121;28;20162;-81
2021/05/22 03:48:25;;;;;;;5.63;0.80;;;11.30;77.20;;;;;;5056523;28;20033;-82
2021/05/22 03:50:51;;;;;;;4.90;0.70;;;11.30;77.00;;;;;;5056338;28;20033;-84
2021/05/22 03:53:17;;;;;;;2.03;0.40;;;11.30;77.20;;;;;;5056424;28;20028;-83
2021/05/22 03:55:43;;;;;;;3.87;0.60;;;11.30;77.10;;;;;;5056717;28;20034;-85
2021/05/22 03:58:08;;;;;;;4.40;0.77;;;11.40;77.30;;;;;;5072938;28;20023;-82
2021/05/22 04:00:34;;;;;;;4.60;0.77;;;11.40;77.30;;;;;;5055549;28;20054;-82
2021/05/22 04:03:00;;;;;;;3.77;0.60;;;11.40;77.40;;;;;;5056356;28;20025;-82
2021/05/22 04:05:26;;;;;;;6.27;0.50;;;11.40;77.60;;;;;;5072845;28;20403;-84
2021/05/22 04:07:52;;;;;;;3.60;0.50;;;11.40;77.60;;;;;;5073094;28;20411;-82
2021/05/22 04:10:18;;;;;;;5.17;1.20;;;11.40;77.60;;;;;;5056133;28;20090;-82
2021/05/22 04:12:43;;;;;;;7.00;0.60;;;11.40;77.70;;;;;;5056260;28;20025;-82
2021/05/22 04:15:10;;;;;;;2.73;0.40;;;11.40;78.30;;;;;;5072751;28;20025;-82
2021/05/22 04:17:35;;;;;;;6.50;0.60;;;11.40;77.70;;;;;;5055753;28;20032;-84
2021/05/22 04:20:01;;;;;;;9.53;1.27;;;11.40;77.70;;;;;;5039789;28;20541;-83
2021/05/22 04:22:27;;;;;;;7.10;0.77;;;11.40;78.30;;;;;;5072569;28;20021;-83
2021/05/22 04:24:53;;;;;;;6.10;0.80;;;11.40;77.80;;;;;;5055971;28;20024;-82
2021/05/22 04:27:18;;;;;;;3.30;0.63;;;11.40;78.00;;;;;;5055794;28;20028;-83
2021/05/22 04:29:44;;;;;;;4.73;0.70;;;11.40;77.90;;;;;;5055814;28;20412;-85
2021/05/22 04:32:10;;;;;;;1.80;0.40;;;11.40;78.20;;;;;;5055627;28;20029;-78
2021/05/22 04:34:35;;;;;;;6.30;0.73;;;11.40;78.90;;;;;;5038765;28;20064;-82
2021/05/22 04:37:01;;;;;;;5.40;0.73;;;11.40;78.60;;;;;;5072345;28;20103;-81
2021/05/22 04:39:28;;;;;;;8.07;0.90;;;11.50;79.40;;;;;;5072230;28;20017;-80
2021/05/22 04:41:54;;;;;;;3.93;0.60;;;11.40;79.90;;;;;;5072459;28;20024;-79
2021/05/22 04:44:26;;;;;;;9.10;1.00;;;11.40;80.50;;;;;;5072512;28;20025;-82
2021/05/22 04:46:51;;;;;;;5.43;0.90;;;11.30;81.10;;;;;;5072268;28;20020;-82
2021/05/22 04:49:17;;;;;;;5.47;0.80;;;11.20;81.80;;;;;;5055491;28;20020;-82
2021/05/22 04:51:45;;;;;;;4.40;0.77;;;11.20;82.40;;;;;;5055459;28;20020;-81
2021/05/22 04:54:10;;;;;;;5.90;1.30;;;11.10;83.20;;;;;;5056251;28;20055;-81
2021/05/22 04:56:36;;;;;;;5.83;1.13;;;11.10;85.40;;;;;;5072064;28;20028;-80
2021/05/22 04:59:02;;;;;;;5.43;0.93;;;11.10;86.60;;;;;;5055443;28;20099;-79
2021/05/22 05:01:29;;;;;;;11.40;1.20;;;10.90;87.90;;;;;;5055587;28;20468;-79
2021/05/22 05:03:55;;;;;;;7.50;1.53;;;10.70;88.50;;;;;;5071708;28;20492;-84
2021/05/22 05:06:20;;;;;;;6.40;1.00;;;10.70;88.70;;;;;;5072129;28;20477;-80
2021/05/22 05:08:46;;;;;;;8.33;1.10;;;10.60;89.20;;;;;;5063366;28;20040;-81
2021/05/22 05:11:12;;;;;;;9.43;0.97;;;10.60;89.50;;;;;;5054467;28;20044;-82
2021/05/22 05:13:38;;;;;;;7.20;0.90;;;10.50;89.60;;;;;;5054989;28;20369;-81
2021/05/22 05:16:04;;;;;;;11.90;1.40;;;10.50;89.90;;;;;;5055482;28;20024;-83
2021/05/22 05:18:30;;;;;;;12.80;1.60;;;10.50;90.00;;;;;;5054991;28;20021;-83
2021/05/22 05:20:55;;;;;;;6.70;1.07;;;10.50;90.10;;;;;;5066819;28;20037;-80
2021/05/22 05:23:22;;;;;;;6.90;1.37;;;10.50;90.30;;;;;;5067366;28;20029;-84
2021/05/22 05:25:48;;;;;;;11.00;1.37;;;10.40;90.70;;;;;;5071294;28;20032;-82
2021/05/22 05:28:14;;;;;;;10.63;1.23;;;10.40;90.90;;;;;;5055256;28;20036;-79
2021/05/22 05:30:40;;;;;;;7.70;1.20;;;10.40;91.10;;;;;;5071661;28;20373;-82
2021/05/22 05:33:05;;;;;;;7.33;1.23;;;10.30;91.40;;;;;;5072966;28;20056;-83
2021/05/22 05:35:31;;;;;;;9.43;1.20;;;10.30;91.40;;;;;;5038510;28;20131;-85
2021/05/22 05:37:56;;;;;;;4.77;0.83;;;10.30;91.70;;;;;;5073280;28;20035;-84
2021/05/22 05:40:22;;;;;;;10.30;1.77;;;10.30;91.80;;;;;;5071724;28;20017;-83
2021/05/22 05:42:49;;;;;;;11.63;1.70;;;10.30;92.20;;;;;;5038524;28;20036;-79
2021/05/22 05:45:15;;;;;;;13.53;1.60;;;10.20;92.20;;;;;;5055056;28;20051;-79
2021/05/22 05:47:40;;;;;;;6.83;1.37;;;10.10;92.60;;;;;;5074960;28;20052;-83
2021/05/22 05:50:07;;;;;;;12.07;1.80;;;10.10;92.90;;;;;;5058763;28;20442;-79
2021/05/22 05:52:33;;;;;;;6.67;1.47;;;10.10;93.30;;;;;;5058712;28;20105;-76
2021/05/22 05:54:59;;;;;;;8.97;1.37;;;10.00;93.50;;;;;;5074995;28;20059;-77
2021/05/22 05:57:25;;;;;;;14.90;1.50;;;10.00;93.70;;;;;;5075295;28;20036;-74
2021/05/22 05:59:51;;;;;;;11.50;1.60;;;10.00;94.00;;;;;;5076501;28;20549;-77
2021/05/22 06:02:16;;;;;;;9.50;2.00;;;10.00;94.10;;;;;;5058852;28;20033;-76
2021/05/22 06:04:42;;;;;;;10.20;1.90;;;9.90;94.40;;;;;;5059512;28;20036;-74
2021/05/22 06:07:07;;;;;;;8.77;2.33;;;9.80;94.50;;;;;;5052428;28;20453;-75
2021/05/22 06:09:33;;;;;;;10.47;2.03;;;9.80;94.80;;;;;;5072311;28;20063;-75
2021/05/22 06:11:59;;;;;;;11.73;1.67;;;9.80;94.90;;;;;;5076389;28;20079;-75
2021/05/22 06:14:38;;;;;;;12.57;1.90;;;9.80;95.20;;;;;;5058154;28;20060;-77
2021/05/22 06:17:04;;;;;;;12.77;1.60;;;9.80;95.20;;;;;;5075080;28;20100;-78
2021/05/22 06:19:29;;;;;;;13.03;2.63;;;9.80;95.40;;;;;;5058125;28;20027;-76
2021/05/22 06:21:55;;;;;;;18.43;1.90;;;9.90;95.60;;;;;;5058061;28;20400;-75
2021/05/22 06:24:21;;;;;;;12.87;1.37;;;9.90;95.60;;;;;;5074644;28;20032;-75
2021/05/22 06:26:46;;;;;;;11.13;1.83;;;9.90;95.70;;;;;;5045372;28;20053;-76
2021/05/22 06:29:13;;;;;;;12.30;2.03;;;9.90;95.70;;;;;;5055876;28;20182;-77
2021/05/22 06:31:40;;;;;;;15.80;1.80;;;9.80;95.90;;;;;;5038553;28;20377;-81
2021/05/22 06:34:06;;;;;;;10.60;1.83;;;9.80;95.80;;;;;;5055995;28;20083;-76
2021/05/22 06:36:31;;;;;;;11.53;3.33;;;9.80;96.00;;;;;;5056111;28;20483;-76
2021/05/22 06:38:57;;;;;;;11.43;1.97;;;9.80;96.00;;;;;;5055748;28;20035;-73
2021/05/22 06:41:23;;;;;;;11.93;2.27;;;9.80;96.10;;;;;;5055899;28;20040;-76
2021/05/22 06:43:49;;;;;;;10.23;2.20;;;9.80;96.30;;;;;;5054360;28;20064;-77
2021/05/22 06:48:42;;;;;;;10.00;2.17;;;9.80;96.60;;;;;;5054344;28;20484;-77
2021/05/22 06:51:07;;;;;;;9.30;2.10;;;9.80;96.70;;;;;;5054458;28;20468;-74
2021/05/22 06:53:33;;;;;;;8.50;2.30;;;9.70;96.70;;;;;;5054291;28;20036;-74
2021/05/22 06:56:00;;;;;;;10.17;2.13;;;9.70;97.10;;;;;;5055794;28;20504;-75
2021/05/22 06:58:26;;;;;;;13.63;2.57;;;9.80;96.90;;;;;;5068472;28;20020;-76
2021/05/22 07:00:52;;;;;;;11.43;2.33;;;9.70;97.00;;;;;;5065079;28;20032;-75
2021/05/22 07:03:17;;;;;;;10.13;2.07;;;9.80;97.00;;;;;;5074192;28;20036;-76
2021/05/22 07:05:43;;;;;;;12.03;3.00;;;9.80;97.10;;;;;;5074165;28;20037;-74
2021/05/22 07:08:09;;;;;;;6.73;2.53;;;9.90;97.10;;;;;;5068937;28;20109;-75
2021/05/22 07:10:36;;;;;;;13.27;2.30;;;9.90;97.20;;;;;;5040798;28;20469;-78
2021/05/22 07:13:02;;;;;;;10.67;2.03;;;9.90;97.00;;;;;;5074993;28;20082;-75
2021/05/22 07:15:28;;;;;;;10.83;2.37;;;9.90;96.90;;;;;;5074005;28;20025;-75
2021/05/22 07:17:53;;;;;;;12.93;2.83;;;9.90;97.00;;;;;;5073806;28;20107;-75
2021/05/22 07:20:20;;;;;;;11.90;2.40;;;9.90;97.00;;;;;;5073507;28;20602;-76
2021/05/22 07:22:47;;;;;;;10.37;1.80;;;9.90;97.00;;;;;;5073551;28;20115;-78
2021/05/22 07:25:13;;;;;;;10.50;2.10;;;9.90;97.10;;;;;;5074214;28;20383;-77
2021/05/22 07:27:39;;;;;;;6.60;2.00;;;9.90;97.10;;;;;;5057018;28;20127;-77
2021/05/22 07:30:10;;;;;;;10.77;2.70;;;9.90;97.20;;;;;;5056619;28;20062;-78
2021/05/22 07:32:37;;;;;;;10.50;2.00;;;9.90;97.10;;;;;;5073454;28;20039;-79
2021/05/22 07:35:05;;;;;;;9.77;3.00;;;9.90;97.20;;;;;;5056828;28;20024;-76
2021/05/22 07:37:31;;;;;;;4.70;2.30;;;9.90;97.20;;;;;;5073196;28;20107;-75
2021/05/22 07:39:57;;;;;;;11.13;2.10;;;9.90;97.30;;;;;;5073228;28;20021;-80
2021/05/22 07:42:24;;;;;;;11.57;2.43;;;9.90;97.30;;;;;;5057436;28;20031;-74
2021/05/22 07:44:51;;;;;;;10.57;2.33;;;10.00;97.30;;;;;;5073394;28;20107;-77
2021/05/22 07:47:17;;;;;;;6.23;1.80;;;10.00;97.30;;;;;;5073194;28;20525;-77
2021/05/22 07:49:43;;;;;;;9.93;2.70;;;10.10;97.10;;;;;;5072889;28;20032;-77
2021/05/22 07:52:11;;;;;;;7.47;1.80;;;10.10;97.10;;;;;;5056172;28;20124;-76
2021/05/22 07:54:39;;;;;;;7.30;2.17;;;10.10;97.00;;;;;;5073077;28;20048;-77
2021/05/22 07:57:07;;;;;;;9.77;2.10;;;10.20;97.00;;;;;;5073224;28;20422;-78
2021/05/22 07:59:33;;;;;;;9.00;1.70;;;10.10;97.00;;;;;;5056163;28;20071;-74
2021/05/22 08:02:00;;;;;;;6.87;1.73;;;10.10;96.90;;;;;;5072933;28;20040;-77
2021/05/22 08:04:26;;;;;;;8.10;1.67;;;10.20;96.90;;;;;;5062921;28;20048;-80
2021/05/22 08:06:51;;;;;;;6.47;1.50;;;10.20;96.90;;;;;;5063320;28;20036;-76
2021/05/22 08:09:17;;;;;;;6.97;1.73;;;10.20;96.80;;;;;;5070561;28;20056;-77
2021/05/22 08:11:43;;;;;;;6.73;1.63;;;10.30;96.90;;;;;;5062235;28;20025;-77
2021/05/22 08:14:09;;;;;;;4.80;1.47;;;10.30;96.80;;;;;;5050605;28;20035;-77
2021/05/22 08:16:35;;;;;;;3.10;1.13;;;10.30;96.80;;;;;;5072637;28;20082;-76
2021/05/22 08:19:01;;;;;;;4.63;1.60;;;10.30;96.70;;;;;;5062261;28;20461;-77
2021/05/22 08:21:27;;;;;;;6.67;1.63;;;10.30;96.70;;;;;;5054090;28;20080;-78
2021/05/22 08:23:53;;;;;;;3.93;1.20;;;10.30;96.70;;;;;;5054306;28;20485;-78
2021/05/22 08:26:19;;;;;;;7.00;1.63;;;10.30;96.80;;;;;;5036135;28;20124;-77
2021/05/22 08:28:45;;;;;;;4.80;1.97;;;10.40;96.90;;;;;;5067330;28;20032;-76
2021/05/22 08:31:11;;;;;;;8.37;2.03;;;10.50;96.90;;;;;;5055879;28;20040;-78
2021/05/22 08:33:36;;;;;;;6.33;2.30;;;10.30;97.00;;;;;;5055877;28;20090;-79
2021/05/22 08:36:02;;;;;;;7.47;1.77;;;10.40;97.00;;;;;;5056048;28;20094;-76
2021/05/22 08:38:28;;;;;;;5.37;1.30;;;10.40;97.00;;;;;;5073348;28;20480;-77
2021/05/22 08:40:56;;;;;;;10.97;1.90;;;10.30;97.00;;;;;;5039108;28;20028;-80
2021/05/22 08:43:22;;;;;;;6.67;1.87;;;10.40;97.10;;;;;;5072386;28;20094;-78
2021/05/22 08:45:47;;;;;;;6.10;2.10;;;10.40;97.10;;;;;;5072569;28;20111;-78
2021/05/22 08:48:15;;;;;;;5.00;1.67;;;10.40;97.10;;;;;;5072354;28;20036;-76
2021/05/22 08:50:43;;;;;;;7.33;1.60;;;10.50;97.10;;;;;;5073510;28;20024;-78
2021/05/22 08:53:09;;;;;;;4.57;1.93;;;10.50;97.20;;;;;;5055424;28;20027;-77
2021/05/22 08:55:35;;;;;;;4.27;1.83;;;10.60;97.20;;;;;;5055022;28;20380;-76
2021/05/22 08:58:03;;;;;;;4.27;1.73;;;10.50;97.20;;;;;;5066381;28;20036;-78
2021/05/22 09:00:32;;;;;;;5.97;1.70;;;10.50;97.20;;;;;;5057861;28;20040;-78
2021/05/22 09:02:57;;;;;;;5.83;1.97;;;10.50;97.30;;;;;;5052299;28;20039;-78
2021/05/22 09:05:29;;;;;;;5.67;2.13;;;10.50;97.30;;;;;;5052399;28;20392;-77
2021/05/22 09:08:00;;;;;;;6.30;2.20;;;10.50;97.40;;;;;;5035267;28;20043;-78
2021/05/22 09:10:32;;;;;;;8.43;2.40;;;10.50;97.50;;;;;;5052840;28;20087;-78
2021/05/22 09:13:00;;;;;;;9.60;2.87;;;10.50;97.60;;;;;;5053174;28;20465;-81
2021/05/22 09:15:28;;;;;;;7.03;2.70;;;10.60;97.60;;;;;;5053204;28;20028;-82
2021/05/22 09:17:56;;;;;;;4.00;2.00;;;10.60;97.50;;;;;;5052179;28;20430;-78
2021/05/22 09:20:32;;;;;;;7.53;2.63;;;10.60;97.40;;;;;;5053506;28;20029;-78
2021/05/22 09:23:17;;;;;;;5.97;2.87;;;10.60;97.40;;;;;;5055964;28;20372;-80
2021/05/22 09:25:47;;;;;;;7.43;3.60;;;10.70;97.30;;;;;;5057081;28;20052;-82
2021/05/22 09:28:15;;;;;;;6.07;2.80;;;10.70;97.20;;;;;;5056187;28;20064;-79
2021/05/22 09:30:42;;;;;;;7.80;3.10;;;10.70;97.30;;;;;;5056621;28;20076;-79
2021/05/22 09:33:13;;;;;;;7.30;3.23;;;10.70;97.30;;;;;;5070325;28;20078;-76
2021/05/22 09:35:39;;;;;;;5.07;3.00;;;10.80;97.30;;;;;;5065672;28;20453;-80
2021/05/22 09:38:05;;;;;;;6.83;3.40;;;10.80;97.20;;;;;;5063281;28;20060;-77
2021/05/22 09:40:42;;;;;;;8.63;3.17;;;10.80;97.10;;;;;;5047419;28;20476;-84
2021/05/22 09:43:09;;;;;;;5.90;3.23;;;10.80;97.10;;;;;;5055970;28;20094;-84
2021/05/22 09:45:40;;;;;;;8.87;3.53;;;10.90;97.00;;;;;;5038815;28;20044;-79
2021/05/22 09:48:13;;;;;;;8.50;3.43;;;10.90;97.00;;;;;;5056809;28;20029;-83
2021/05/22 09:50:49;;;;;;;6.33;3.30;;;10.90;97.20;;;;;;5054999;28;20021;-80
2021/05/22 09:53:35;;;;;;;5.10;2.50;;;10.90;96.90;;;;;;5055167;28;20104;-83
2021/05/22 09:56:21;;;;;;;10.03;3.63;;;10.90;96.90;;;;;;5055061;28;20495;-79
2021/05/22 09:58:52;;;;;;;7.60;3.73;;;10.90;96.80;;;;;;5056530;28;20465;-77
2021/05/22 10:01:21;;;;;;;6.37;3.03;;;10.90;96.70;;;;;;5056412;28;20025;-79
2021/05/22 10:03:47;;;;;;;5.23;3.10;;;11.00;96.80;;;;;;5055101;28;20025;-78
2021/05/22 10:06:14;;;;;;;6.13;3.17;;;10.90;96.70;;;;;;5038596;28;20040;-80
2021/05/22 10:08:43;;;;;;;7.77;2.90;;;11.00;96.80;;;;;;5054903;28;20388;-83
2021/05/22 10:11:09;;;;;;;7.83;3.10;;;11.00;96.80;;;;;;5054562;28;20507;-79
2021/05/22 10:13:36;;;;;;;8.30;3.70;;;11.00;96.70;;;;;;5058856;28;20029;-80
2021/05/22 10:16:03;;;;;;;6.20;3.07;;;11.10;96.40;;;;;;5065663;28;20043;-76
2021/05/22 10:18:31;;;;;;;7.33;3.70;;;11.10;96.40;;;;;;5076140;28;20440;-75
2021/05/22 10:21:00;;;;;;;6.37;3.07;;;11.20;96.30;;;;;;5074841;28;20032;-79
2021/05/22 10:23:26;;;;;;;5.67;3.23;;;11.20;96.30;;;;;;5074815;28;20031;-80
2021/05/22 10:25:57;;;;;;;7.63;3.23;;;11.30;96.10;;;;;;5075950;28;20531;-78
2021/05/22 10:28:23;;;;;;;6.63;3.03;;;11.30;95.60;;;;;;5058198;28;20032;-82
2021/05/22 10:30:49;;;;;;;5.63;2.60;;;11.30;95.70;;;;;;5071052;28;20033;-79
2021/05/22 10:33:17;;;;;;;7.70;3.03;;;11.40;95.70;;;;;;5053762;28;20021;-80
2021/05/22 10:35:48;;;;;;;6.03;2.33;;;11.40;95.60;;;;;;5055913;28;20059;-80
2021/05/22 10:38:28;;;;;;;8.40;3.23;;;11.40;95.50;;;;;;5055599;28;20523;-82
2021/05/22 10:40:55;;;;;;;5.63;2.77;;;11.50;95.40;;;;;;5054301;28;20089;-80
2021/05/22 10:43:53;;;;;;;4.07;2.70;;;11.60;95.50;;;;;;5057141;28;20060;-81
2021/05/22 10:46:21;;;;;;;5.22;2.70;;;11.70;94.90;;;;;;5059712;28;20060;-79
2021/05/22 10:48:51;;;;;;;5.20;2.80;;;11.70;94.80;;;;;;5074628;28;20028;-78
2021/05/22 10:51:34;;;;;;;7.13;2.50;;;11.80;94.80;;;;;;5063632;28;20060;-79
2021/05/22 10:54:03;;;;;;;6.00;2.70;;;11.80;94.60;;;;;;5066281;28;20056;-80
2021/05/22 10:56:28;;;;;;;4.35;2.38;;;11.80;94.50;;;;;;5074050;28;20102;-80
2021/05/22 10:58:57;;;;;;;5.75;2.40;;;11.80;94.50;;;;;;5074119;28;20476;-80
2021/05/22 11:01:23;;;;;;;5.45;2.40;;;11.80;94.60;;;;;;5074269;28;20123;-79
2021/05/22 11:04:15;;;;;;;5.90;2.80;;;11.80;94.70;;;;;;5073968;28;20067;-81
2021/05/22 11:06:48;;;;;;;5.57;2.10;;;11.80;94.80;;;;;;5055983;28;20512;-81
2021/05/22 11:09:26;;;;;;;4.28;2.25;;;11.80;94.70;;;;;;5054557;28;20500;-81
2021/05/22 11:11:59;;;;;;;3.45;2.03;;;11.90;94.90;;;;;;5054207;28;20033;-85
2021/05/22 11:14:39;;;;;;;4.85;2.83;;;11.90;95.00;;;;;;5054194;28;20025;-82
2021/05/22 11:17:25;;;;;;;4.70;2.45;;;11.90;95.10;;;;;;5053808;28;20047;-82
2021/05/22 11:19:57;;;;;;;5.85;2.90;;;12.00;95.00;;;;;;5053834;28;20036;-79
2021/05/22 11:22:26;;;;;;;7.53;3.30;;;12.00;95.10;;;;;;5055185;28;20091;-80
2021/05/22 11:25:10;;;;;;;5.77;3.57;;;11.90;95.20;;;;;;5079473;28;20037;-80
2021/05/22 11:27:57;;;;;;;5.67;3.47;;;11.90;95.40;;;;;;5053292;28;20115;-82
2021/05/22 11:30:38;;;;;;;12.05;4.80;;;11.90;95.70;;;;;;5053214;28;20036;-80
2021/05/22 11:33:22;;;;;;;10.63;4.93;;;11.80;96.00;;;;;;5053228;28;20441;-78
2021/05/22 11:35:51;;;;;;;9.07;5.00;;;11.70;96.30;;;;;;5054633;28;20033;-81
2021/05/22 11:38:19;;;;;;;9.40;5.47;;;11.60;96.60;;;;;;5053156;28;20100;-82
2021/05/22 11:40:45;;;;;;;8.47;5.90;;;11.50;96.90;;;;;;5053844;28;20024;-81
2021/05/22 11:43:14;;;;;;;7.90;5.43;;;11.40;97.10;;;;;;5052473;28;20036;-85
2021/05/22 11:45:53;;;;;;;6.47;4.00;;;11.40;97.30;;;;;;5053260;28;20033;-82
2021/05/22 11:48:31;;;;;;;9.03;4.73;;;11.30;97.30;;;;;;5052998;28;20542;-83
2021/05/22 11:50:56;;;;;;;7.13;3.97;;;11.30;97.40;;;;;;5052982;28;20029;-79
2021/05/22 11:53:26;;;;;;;8.57;4.00;;;11.20;97.50;;;;;;5052828;28;20025;-83
2021/05/22 11:56:08;;;;;;;8.50;4.10;;;11.30;97.70;;;;;;5054261;28;20049;-80
2021/05/22 11:58:36;;;;;;;6.87;4.17;;;11.30;97.80;;;;;;5060658;28;20043;-79
2021/05/22 12:01:23;;;;;;;7.13;4.33;;;11.40;97.80;;;;;;5074195;28;20116;-79
2021/05/22 12:03:51;;;;;;;9.50;5.03;;;11.50;97.90;;;;;;5074092;28;20549;-80
2021/05/22 12:06:39;;;;;;;6.37;4.23;;;11.60;98.00;;;;;;5074292;28;20024;-76
2021/05/22 12:09:13;;;;;;;8.23;5.00;;;11.60;97.80;;;;;;5072689;28;20048;-80
2021/05/22 12:11:53;;;;;;;10.43;5.57;;;11.50;97.70;;;;;;5073707;28;20071;-78
2021/05/22 12:14:18;;;;;;;10.10;6.17;;;11.50;97.80;;;;;;5072763;28;20020;-80
2021/05/22 12:16:44;;;;;;;10.77;5.43;;;11.40;97.80;;;;;;5055972;28;20025;-78
2021/05/22 12:19:16;;;;;;;10.60;6.23;;;11.40;97.90;;;;;;5074025;28;20103;-80
2021/05/22 12:21:50;;;;;;;12.57;7.70;;;11.50;98.10;;;;;;5073975;28;20027;-82
2021/05/22 12:24:17;;;;;;;12.13;6.77;;;11.50;98.00;;;;;;5072544;28;20020;-78
2021/05/22 12:26:49;;;;;;;9.83;6.53;;;11.60;98.00;;;;;;5056014;28;20028;-79
2021/05/22 12:29:15;;;;;;;13.43;6.77;;;11.70;98.00;;;;;;5072501;28;20029;-80
2021/05/22 12:31:47;;;;;;;10.43;5.83;;;11.60;97.40;;;;;;5072611;28;20044;-78
2021/05/22 12:34:12;;;;;;;14.00;5.80;;;11.60;97.00;;;;;;5073774;28;20020;-81
2021/05/22 12:36:59;;;;;;;12.23;6.57;;;11.40;96.90;;;;;;5072398;28;20376;-80
2021/05/22 12:39:31;;;;;;;12.90;6.90;;;11.40;97.10;;;;;;5072555;28;20031;-78
2021/05/22 12:41:56;;;;;;;14.30;6.83;;;11.30;97.20;;;;;;5072525;28;20445;-79
2021/05/22 12:44:22;;;;;;;14.57;7.40;;;11.40;97.30;;;;;;5072153;28;20028;-81
2021/05/22 12:46:56;;;;;;;12.63;7.10;;;11.40;97.40;;;;;;5056232;28;20021;-79
2021/05/22 12:49:22;;;;;;;10.68;7.30;;;11.40;97.40;;;;;;5055612;28;20035;-78
2021/05/22 12:52:10;;;;;;;14.80;7.53;;;11.40;97.00;;;;;;5055578;28;20040;-79